sensor_id;sensor_type;location;lat;lon;timestamp;P1;durP1;ratioP1;P2;durP2;ratioP2
71108;SDS011;59614;51.012;-1.648;2023-06-26T00:01:30;11.38;;;3.33;;
71108;SDS011;59614;51.012;-1.648;2023-06-26T00:03:59;6.75;;;2.42;;
71108;SDS011;59614;51.012;-1.648;2023-06-26T00:06:25;10.77;;;3.72;;
71108;SDS011;59614;51.012;-1.648;2023-06-26T00:08:52;12.30;;;3.33;;
71108;SDS011;59614;51.012;-1.648;2023-06-26T00:11:19;12.15;;;3.33;;
71108;SDS011;59614;51.012;-1.648;2023-06-26T00:13:45;13.27;;;3.53;;
71108;SDS011;59614;51.012;-1.648;2023-06-26T00:16:10;10.45;;;2.80;;
71108;SDS011;59614;51.012;-1.648;2023-06-26T00:18:36;8.48;;;2.78;;
71108;SDS011;59614;51.012;-1.648;2023-06-26T00:21:01;11.60;;;3.03;;
71108;SDS011;59614;51.012;-1.648;2023-06-26T00:23:26;10.77;;;2.92;;
71108;SDS011;59614;51.012;-1.648;2023-06-26T00:25:56;10.13;;;3.40;;
71108;SDS011;59614;51.012;-1.648;2023-06-26T00:28:21;9.10;;;2.95;;
71108;SDS011;59614;51.012;-1.648;2023-06-26T00:30:47;10.05;;;2.97;;
71108;SDS011;59614;51.012;-1.648;2023-06-26T00:33:12;11.48;;;3.00;;
71108;SDS011;59614;51.012;-1.648;2023-06-26T00:35:37;11.00;;;2.63;;
71108;SDS011;59614;51.012;-1.648;2023-06-26T00:38:03;9.88;;;2.67;;
71108;SDS011;59614;51.012;-1.648;2023-06-26T00:40:29;5.57;;;2.30;;
71108;SDS011;59614;51.012;-1.648;2023-06-26T00:42:55;10.88;;;2.60;;
71108;SDS011;59614;51.012;-1.648;2023-06-26T00:45:20;7.35;;;2.42;;
71108;SDS011;59614;51.012;-1.648;2023-06-26T00:47:46;4.47;;;1.95;;
71108;SDS011;59614;51.012;-1.648;2023-06-26T00:50:12;10.13;;;2.67;;
71108;SDS011;59614;51.012;-1.648;2023-06-26T00:52:38;12.75;;;3.35;;
71108;SDS011;59614;51.012;-1.648;2023-06-26T00:55:04;8.50;;;3.28;;
71108;SDS011;59614;51.012;-1.648;2023-06-26T00:57:30;10.57;;;4.20;;
71108;SDS011;59614;51.012;-1.648;2023-06-26T00:59:56;9.77;;;4.00;;
71108;SDS011;59614;51.012;-1.648;2023-06-26T01:02:22;10.98;;;3.70;;
71108;SDS011;59614;51.012;-1.648;2023-06-26T01:04:48;8.98;;;3.25;;
71108;SDS011;59614;51.012;-1.648;2023-06-26T01:07:15;7.50;;;2.33;;
71108;SDS011;59614;51.012;-1.648;2023-06-26T01:09:41;8.45;;;2.67;;
71108;SDS011;59614;51.012;-1.648;2023-06-26T01:12:07;9.27;;;2.80;;
71108;SDS011;59614;51.012;-1.648;2023-06-26T01:14:33;8.00;;;2.60;;
71108;SDS011;59614;51.012;-1.648;2023-06-26T01:17:00;5.65;;;2.30;;
71108;SDS011;59614;51.012;-1.648;2023-06-26T01:19:27;11.10;;;2.58;;
71108;SDS011;59614;51.012;-1.648;2023-06-26T01:24:23;8.10;;;2.65;;
71108;SDS011;59614;51.012;-1.648;2023-06-26T01:26:53;6.95;;;2.40;;
71108;SDS011;59614;51.012;-1.648;2023-06-26T01:29:19;11.70;;;3.30;;
71108;SDS011;59614;51.012;-1.648;2023-06-26T01:31:48;6.00;;;2.30;;
71108;SDS011;59614;51.012;-1.648;2023-06-26T01:34:17;6.95;;;2.67;;
71108;SDS011;59614;51.012;-1.648;2023-06-26T01:36:46;8.48;;;2.65;;
71108;SDS011;59614;51.012;-1.648;2023-06-26T01:39:15;9.77;;;2.63;;
71108;SDS011;59614;51.012;-1.648;2023-06-26T01:41:42;13.30;;;2.78;;
71108;SDS011;59614;51.012;-1.648;2023-06-26T01:44:11;6.85;;;2.38;;
71108;SDS011;59614;51.012;-1.648;2023-06-26T01:49:09;9.45;;;2.72;;
71108;SDS011;59614;51.012;-1.648;2023-06-26T01:51:42;9.65;;;2.60;;
71108;SDS011;59614;51.012;-1.648;2023-06-26T01:54:12;8.35;;;2.40;;
71108;SDS011;59614;51.012;-1.648;2023-06-26T01:56:41;8.50;;;2.97;;
71108;SDS011;59614;51.012;-1.648;2023-06-26T02:01:36;9.05;;;2.50;;
71108;SDS011;59614;51.012;-1.648;2023-06-26T02:04:02;11.57;;;2.97;;
71108;SDS011;59614;51.012;-1.648;2023-06-26T02:06:28;8.32;;;2.58;;
71108;SDS011;59614;51.012;-1.648;2023-06-26T02:08:53;13.48;;;2.85;;
71108;SDS011;59614;51.012;-1.648;2023-06-26T02:11:21;12.73;;;3.50;;
71108;SDS011;59614;51.012;-1.648;2023-06-26T02:13:47;8.73;;;3.10;;
71108;SDS011;59614;51.012;-1.648;2023-06-26T02:16:12;8.55;;;2.72;;
71108;SDS011;59614;51.012;-1.648;2023-06-26T02:18:37;10.15;;;2.72;;
71108;SDS011;59614;51.012;-1.648;2023-06-26T02:21:03;9.93;;;2.90;;
71108;SDS011;59614;51.012;-1.648;2023-06-26T02:23:29;7.40;;;2.67;;
71108;SDS011;59614;51.012;-1.648;2023-06-26T02:25:54;9.55;;;3.40;;
71108;SDS011;59614;51.012;-1.648;2023-06-26T02:28:20;6.03;;;2.78;;
71108;SDS011;59614;51.012;-1.648;2023-06-26T02:30:45;9.48;;;3.42;;
71108;SDS011;59614;51.012;-1.648;2023-06-26T02:33:10;10.68;;;4.20;;
71108;SDS011;59614;51.012;-1.648;2023-06-26T02:35:36;12.73;;;5.13;;
71108;SDS011;59614;51.012;-1.648;2023-06-26T02:38:01;11.82;;;5.22;;
71108;SDS011;59614;51.012;-1.648;2023-06-26T02:40:27;10.73;;;3.83;;
71108;SDS011;59614;51.012;-1.648;2023-06-26T02:42:52;8.27;;;3.85;;
71108;SDS011;59614;51.012;-1.648;2023-06-26T02:45:17;12.35;;;4.65;;
71108;SDS011;59614;51.012;-1.648;2023-06-26T02:47:43;11.02;;;5.15;;
71108;SDS011;59614;51.012;-1.648;2023-06-26T02:50:08;15.70;;;5.22;;
71108;SDS011;59614;51.012;-1.648;2023-06-26T02:52:34;13.35;;;4.13;;
71108;SDS011;59614;51.012;-1.648;2023-06-26T02:55:00;9.68;;;3.15;;
71108;SDS011;59614;51.012;-1.648;2023-06-26T02:57:25;10.95;;;3.00;;
71108;SDS011;59614;51.012;-1.648;2023-06-26T02:59:50;7.35;;;2.40;;
71108;SDS011;59614;51.012;-1.648;2023-06-26T03:02:16;9.82;;;2.83;;
71108;SDS011;59614;51.012;-1.648;2023-06-26T03:04:41;10.88;;;4.30;;
71108;SDS011;59614;51.012;-1.648;2023-06-26T03:07:08;10.15;;;3.92;;
71108;SDS011;59614;51.012;-1.648;2023-06-26T03:09:33;13.25;;;4.65;;
71108;SDS011;59614;51.012;-1.648;2023-06-26T03:11:59;10.82;;;3.83;;
71108;SDS011;59614;51.012;-1.648;2023-06-26T03:14:24;8.32;;;3.00;;
71108;SDS011;59614;51.012;-1.648;2023-06-26T03:16:51;13.43;;;3.40;;
71108;SDS011;59614;51.012;-1.648;2023-06-26T03:19:17;10.85;;;3.20;;
71108;SDS011;59614;51.012;-1.648;2023-06-26T03:21:43;10.05;;;3.08;;
71108;SDS011;59614;51.012;-1.648;2023-06-26T03:24:08;13.00;;;3.47;;
71108;SDS011;59614;51.012;-1.648;2023-06-26T03:26:34;8.23;;;2.70;;
71108;SDS011;59614;51.012;-1.648;2023-06-26T03:28:59;11.10;;;2.80;;
71108;SDS011;59614;51.012;-1.648;2023-06-26T03:31:24;6.20;;;2.70;;
71108;SDS011;59614;51.012;-1.648;2023-06-26T03:33:50;6.43;;;2.63;;
71108;SDS011;59614;51.012;-1.648;2023-06-26T03:36:15;10.80;;;2.72;;
71108;SDS011;59614;51.012;-1.648;2023-06-26T03:38:41;9.38;;;2.65;;
71108;SDS011;59614;51.012;-1.648;2023-06-26T03:41:06;10.63;;;3.70;;
71108;SDS011;59614;51.012;-1.648;2023-06-26T03:43:32;9.07;;;3.72;;
71108;SDS011;59614;51.012;-1.648;2023-06-26T03:45:57;8.85;;;3.55;;
71108;SDS011;59614;51.012;-1.648;2023-06-26T03:48:22;11.88;;;3.80;;
71108;SDS011;59614;51.012;-1.648;2023-06-26T03:50:48;12.75;;;3.25;;
71108;SDS011;59614;51.012;-1.648;2023-06-26T03:53:14;10.15;;;3.40;;
71108;SDS011;59614;51.012;-1.648;2023-06-26T03:55:39;7.78;;;3.45;;
71108;SDS011;59614;51.012;-1.648;2023-06-26T03:58:04;11.45;;;3.28;;
71108;SDS011;59614;51.012;-1.648;2023-06-26T04:00:30;13.60;;;3.33;;
71108;SDS011;59614;51.012;-1.648;2023-06-26T04:02:56;11.00;;;3.33;;
71108;SDS011;59614;51.012;-1.648;2023-06-26T04:05:22;15.85;;;3.60;;
71108;SDS011;59614;51.012;-1.648;2023-06-26T04:07:51;10.98;;;3.45;;
71108;SDS011;59614;51.012;-1.648;2023-06-26T04:10:17;7.97;;;3.10;;
71108;SDS011;59614;51.012;-1.648;2023-06-26T04:12:42;8.38;;;3.40;;
71108;SDS011;59614;51.012;-1.648;2023-06-26T04:15:08;14.40;;;3.38;;
71108;SDS011;59614;51.012;-1.648;2023-06-26T04:17:34;13.75;;;3.25;;
71108;SDS011;59614;51.012;-1.648;2023-06-26T04:19:59;11.48;;;3.60;;
71108;SDS011;59614;51.012;-1.648;2023-06-26T04:22:24;11.68;;;3.22;;
71108;SDS011;59614;51.012;-1.648;2023-06-26T04:24:50;13.75;;;3.67;;
71108;SDS011;59614;51.012;-1.648;2023-06-26T04:27:16;11.15;;;3.58;;
71108;SDS011;59614;51.012;-1.648;2023-06-26T04:29:42;11.73;;;2.90;;
71108;SDS011;59614;51.012;-1.648;2023-06-26T04:32:07;8.50;;;2.80;;
71108;SDS011;59614;51.012;-1.648;2023-06-26T04:34:33;11.68;;;3.13;;
71108;SDS011;59614;51.012;-1.648;2023-06-26T04:36:59;6.35;;;2.78;;
71108;SDS011;59614;51.012;-1.648;2023-06-26T04:39:24;10.35;;;2.90;;
71108;SDS011;59614;51.012;-1.648;2023-06-26T04:41:49;11.65;;;3.45;;
71108;SDS011;59614;51.012;-1.648;2023-06-26T04:44:15;11.60;;;2.83;;
71108;SDS011;59614;51.012;-1.648;2023-06-26T04:46:40;13.20;;;2.80;;
71108;SDS011;59614;51.012;-1.648;2023-06-26T04:49:06;11.57;;;3.10;;
71108;SDS011;59614;51.012;-1.648;2023-06-26T04:51:32;13.25;;;3.08;;
71108;SDS011;59614;51.012;-1.648;2023-06-26T04:53:58;13.38;;;3.03;;
71108;SDS011;59614;51.012;-1.648;2023-06-26T04:56:23;11.02;;;3.22;;
71108;SDS011;59614;51.012;-1.648;2023-06-26T04:58:48;6.38;;;2.22;;
71108;SDS011;59614;51.012;-1.648;2023-06-26T05:01:14;11.10;;;3.05;;
71108;SDS011;59614;51.012;-1.648;2023-06-26T05:03:39;13.35;;;3.10;;
71108;SDS011;59614;51.012;-1.648;2023-06-26T05:06:05;6.03;;;2.65;;
71108;SDS011;59614;51.012;-1.648;2023-06-26T05:08:30;8.40;;;2.78;;
71108;SDS011;59614;51.012;-1.648;2023-06-26T05:10:56;8.70;;;2.75;;
71108;SDS011;59614;51.012;-1.648;2023-06-26T05:13:24;12.35;;;2.95;;
71108;SDS011;59614;51.012;-1.648;2023-06-26T05:15:51;10.00;;;2.90;;
71108;SDS011;59614;51.012;-1.648;2023-06-26T05:18:17;17.33;;;3.38;;
71108;SDS011;59614;51.012;-1.648;2023-06-26T05:20:42;13.67;;;2.90;;
71108;SDS011;59614;51.012;-1.648;2023-06-26T05:23:08;12.13;;;3.00;;
71108;SDS011;59614;51.012;-1.648;2023-06-26T05:25:36;13.55;;;3.35;;
71108;SDS011;59614;51.012;-1.648;2023-06-26T05:28:02;12.77;;;2.80;;
71108;SDS011;59614;51.012;-1.648;2023-06-26T05:30:30;10.23;;;2.60;;
71108;SDS011;59614;51.012;-1.648;2023-06-26T05:32:56;14.50;;;3.08;;
71108;SDS011;59614;51.012;-1.648;2023-06-26T05:35:25;8.77;;;2.75;;
71108;SDS011;59614;51.012;-1.648;2023-06-26T05:37:53;8.68;;;3.20;;
71108;SDS011;59614;51.012;-1.648;2023-06-26T05:40:20;8.32;;;2.80;;
71108;SDS011;59614;51.012;-1.648;2023-06-26T05:42:45;12.30;;;2.83;;
71108;SDS011;59614;51.012;-1.648;2023-06-26T05:45:11;12.48;;;3.28;;
71108;SDS011;59614;51.012;-1.648;2023-06-26T05:47:37;10.70;;;3.08;;
71108;SDS011;59614;51.012;-1.648;2023-06-26T05:50:03;17.88;;;3.13;;
71108;SDS011;59614;51.012;-1.648;2023-06-26T05:52:29;11.82;;;3.45;;
71108;SDS011;59614;51.012;-1.648;2023-06-26T05:54:55;15.73;;;3.03;;
71108;SDS011;59614;51.012;-1.648;2023-06-26T05:57:25;9.68;;;2.92;;
71108;SDS011;59614;51.012;-1.648;2023-06-26T05:59:52;13.18;;;2.95;;
71108;SDS011;59614;51.012;-1.648;2023-06-26T06:02:18;16.73;;;3.38;;
71108;SDS011;59614;51.012;-1.648;2023-06-26T06:04:43;12.25;;;3.10;;
71108;SDS011;59614;51.012;-1.648;2023-06-26T06:07:09;12.27;;;3.00;;
71108;SDS011;59614;51.012;-1.648;2023-06-26T06:09:34;10.65;;;2.97;;
71108;SDS011;59614;51.012;-1.648;2023-06-26T06:11:59;11.27;;;2.83;;
71108;SDS011;59614;51.012;-1.648;2023-06-26T06:14:26;17.38;;;3.22;;
71108;SDS011;59614;51.012;-1.648;2023-06-26T06:16:53;9.15;;;2.72;;
71108;SDS011;59614;51.012;-1.648;2023-06-26T06:19:18;14.25;;;2.85;;
71108;SDS011;59614;51.012;-1.648;2023-06-26T06:21:43;9.20;;;2.33;;
71108;SDS011;59614;51.012;-1.648;2023-06-26T06:24:09;14.65;;;3.25;;
71108;SDS011;59614;51.012;-1.648;2023-06-26T06:26:34;11.82;;;3.20;;
71108;SDS011;59614;51.012;-1.648;2023-06-26T06:29:00;16.23;;;3.53;;
71108;SDS011;59614;51.012;-1.648;2023-06-26T06:31:26;15.02;;;3.40;;
71108;SDS011;59614;51.012;-1.648;2023-06-26T06:33:53;18.27;;;3.65;;
71108;SDS011;59614;51.012;-1.648;2023-06-26T06:36:21;15.48;;;3.33;;
71108;SDS011;59614;51.012;-1.648;2023-06-26T06:38:46;17.55;;;3.90;;
71108;SDS011;59614;51.012;-1.648;2023-06-26T06:41:12;9.77;;;3.10;;
71108;SDS011;59614;51.012;-1.648;2023-06-26T06:43:37;13.20;;;3.38;;
71108;SDS011;59614;51.012;-1.648;2023-06-26T06:46:03;16.17;;;3.25;;
71108;SDS011;59614;51.012;-1.648;2023-06-26T06:48:29;12.57;;;3.45;;
71108;SDS011;59614;51.012;-1.648;2023-06-26T06:50:54;13.77;;;3.50;;
71108;SDS011;59614;51.012;-1.648;2023-06-26T06:53:19;22.77;;;4.15;;
71108;SDS011;59614;51.012;-1.648;2023-06-26T06:55:46;16.45;;;3.83;;
71108;SDS011;59614;51.012;-1.648;2023-06-26T06:58:11;12.23;;;3.33;;
71108;SDS011;59614;51.012;-1.648;2023-06-26T07:00:37;16.67;;;5.53;;
71108;SDS011;59614;51.012;-1.648;2023-06-26T07:03:02;18.77;;;3.80;;
71108;SDS011;59614;51.012;-1.648;2023-06-26T07:05:27;8.70;;;3.22;;
71108;SDS011;59614;51.012;-1.648;2023-06-26T07:07:53;15.55;;;3.90;;
71108;SDS011;59614;51.012;-1.648;2023-06-26T07:10:18;13.82;;;3.47;;
71108;SDS011;59614;51.012;-1.648;2023-06-26T07:12:44;12.82;;;3.38;;
71108;SDS011;59614;51.012;-1.648;2023-06-26T07:15:09;13.25;;;3.47;;
71108;SDS011;59614;51.012;-1.648;2023-06-26T07:17:35;19.38;;;3.22;;
71108;SDS011;59614;51.012;-1.648;2023-06-26T07:20:03;11.93;;;2.78;;
71108;SDS011;59614;51.012;-1.648;2023-06-26T07:22:33;14.00;;;2.90;;
71108;SDS011;59614;51.012;-1.648;2023-06-26T07:24:59;19.08;;;3.28;;
71108;SDS011;59614;51.012;-1.648;2023-06-26T07:27:25;12.50;;;3.30;;
71108;SDS011;59614;51.012;-1.648;2023-06-26T07:29:50;8.35;;;2.95;;
71108;SDS011;59614;51.012;-1.648;2023-06-26T07:32:16;11.00;;;2.95;;
71108;SDS011;59614;51.012;-1.648;2023-06-26T07:34:41;11.80;;;2.90;;
71108;SDS011;59614;51.012;-1.648;2023-06-26T07:37:07;12.35;;;2.90;;
71108;SDS011;59614;51.012;-1.648;2023-06-26T07:39:32;14.32;;;3.10;;
71108;SDS011;59614;51.012;-1.648;2023-06-26T07:41:58;13.82;;;2.97;;
71108;SDS011;59614;51.012;-1.648;2023-06-26T07:44:24;12.07;;;3.00;;
71108;SDS011;59614;51.012;-1.648;2023-06-26T07:46:50;11.90;;;3.25;;
71108;SDS011;59614;51.012;-1.648;2023-06-26T07:49:15;14.77;;;2.65;;
71108;SDS011;59614;51.012;-1.648;2023-06-26T07:51:40;10.40;;;3.25;;
71108;SDS011;59614;51.012;-1.648;2023-06-26T07:54:06;15.52;;;3.30;;
71108;SDS011;59614;51.012;-1.648;2023-06-26T07:56:35;9.40;;;3.03;;
71108;SDS011;59614;51.012;-1.648;2023-06-26T07:59:16;11.65;;;2.80;;
71108;SDS011;59614;51.012;-1.648;2023-06-26T08:01:42;10.20;;;2.95;;
71108;SDS011;59614;51.012;-1.648;2023-06-26T08:04:07;6.60;;;2.63;;
71108;SDS011;59614;51.012;-1.648;2023-06-26T08:06:32;10.57;;;2.80;;
71108;SDS011;59614;51.012;-1.648;2023-06-26T08:08:58;13.98;;;2.88;;
71108;SDS011;59614;51.012;-1.648;2023-06-26T08:11:23;11.88;;;2.88;;
71108;SDS011;59614;51.012;-1.648;2023-06-26T08:13:48;9.75;;;2.55;;
71108;SDS011;59614;51.012;-1.648;2023-06-26T08:16:14;11.88;;;2.70;;
71108;SDS011;59614;51.012;-1.648;2023-06-26T08:18:40;12.85;;;3.13;;
71108;SDS011;59614;51.012;-1.648;2023-06-26T08:21:05;12.60;;;3.00;;
71108;SDS011;59614;51.012;-1.648;2023-06-26T08:23:30;7.60;;;2.85;;
71108;SDS011;59614;51.012;-1.648;2023-06-26T08:25:56;13.25;;;3.15;;
71108;SDS011;59614;51.012;-1.648;2023-06-26T08:28:23;7.47;;;2.28;;
71108;SDS011;59614;51.012;-1.648;2023-06-26T08:30:49;12.38;;;2.90;;
71108;SDS011;59614;51.012;-1.648;2023-06-26T08:33:14;10.10;;;2.90;;
71108;SDS011;59614;51.012;-1.648;2023-06-26T08:35:39;10.90;;;3.30;;
71108;SDS011;59614;51.012;-1.648;2023-06-26T08:38:05;8.80;;;2.72;;
71108;SDS011;59614;51.012;-1.648;2023-06-26T08:40:30;10.73;;;3.05;;
71108;SDS011;59614;51.012;-1.648;2023-06-26T08:42:57;12.02;;;3.05;;
71108;SDS011;59614;51.012;-1.648;2023-06-26T08:45:22;10.25;;;2.75;;
71108;SDS011;59614;51.012;-1.648;2023-06-26T08:47:47;10.07;;;3.20;;
71108;SDS011;59614;51.012;-1.648;2023-06-26T08:50:18;13.85;;;2.88;;
71108;SDS011;59614;51.012;-1.648;2023-06-26T08:52:50;12.50;;;2.63;;
71108;SDS011;59614;51.012;-1.648;2023-06-26T08:55:22;10.93;;;2.70;;
71108;SDS011;59614;51.012;-1.648;2023-06-26T08:57:49;13.68;;;3.30;;
71108;SDS011;59614;51.012;-1.648;2023-06-26T09:00:17;10.75;;;2.90;;
71108;SDS011;59614;51.012;-1.648;2023-06-26T09:02:43;10.93;;;2.80;;
71108;SDS011;59614;51.012;-1.648;2023-06-26T09:05:09;8.00;;;2.65;;
71108;SDS011;59614;51.012;-1.648;2023-06-26T09:07:36;7.47;;;2.67;;
71108;SDS011;59614;51.012;-1.648;2023-06-26T09:10:01;10.50;;;3.08;;
71108;SDS011;59614;51.012;-1.648;2023-06-26T09:12:27;7.95;;;2.80;;
71108;SDS011;59614;51.012;-1.648;2023-06-26T09:14:53;10.32;;;2.83;;
71108;SDS011;59614;51.012;-1.648;2023-06-26T09:17:23;9.07;;;2.75;;
71108;SDS011;59614;51.012;-1.648;2023-06-26T09:19:49;10.50;;;2.85;;
71108;SDS011;59614;51.012;-1.648;2023-06-26T09:22:15;8.20;;;2.50;;
71108;SDS011;59614;51.012;-1.648;2023-06-26T09:24:41;10.45;;;2.78;;
71108;SDS011;59614;51.012;-1.648;2023-06-26T09:27:07;9.80;;;2.50;;
71108;SDS011;59614;51.012;-1.648;2023-06-26T09:29:33;8.35;;;2.70;;
71108;SDS011;59614;51.012;-1.648;2023-06-26T09:31:59;6.80;;;2.80;;
71108;SDS011;59614;51.012;-1.648;2023-06-26T09:34:31;12.20;;;3.00;;
71108;SDS011;59614;51.012;-1.648;2023-06-26T09:36:57;5.97;;;2.38;;
71108;SDS011;59614;51.012;-1.648;2023-06-26T09:39:23;12.35;;;2.70;;
71108;SDS011;59614;51.012;-1.648;2023-06-26T09:41:49;6.68;;;2.45;;
71108;SDS011;59614;51.012;-1.648;2023-06-26T09:44:16;9.30;;;2.38;;
71108;SDS011;59614;51.012;-1.648;2023-06-26T09:46:42;7.07;;;2.53;;
71108;SDS011;59614;51.012;-1.648;2023-06-26T09:49:10;13.10;;;3.00;;
71108;SDS011;59614;51.012;-1.648;2023-06-26T09:51:37;9.82;;;2.45;;
71108;SDS011;59614;51.012;-1.648;2023-06-26T09:54:04;7.93;;;2.58;;
71108;SDS011;59614;51.012;-1.648;2023-06-26T09:56:30;8.90;;;2.45;;
71108;SDS011;59614;51.012;-1.648;2023-06-26T09:58:57;9.80;;;2.33;;
71108;SDS011;59614;51.012;-1.648;2023-06-26T10:01:24;6.78;;;2.13;;
71108;SDS011;59614;51.012;-1.648;2023-06-26T10:03:50;9.15;;;2.53;;
71108;SDS011;59614;51.012;-1.648;2023-06-26T10:06:17;10.13;;;2.60;;
71108;SDS011;59614;51.012;-1.648;2023-06-26T10:08:44;8.48;;;2.65;;
71108;SDS011;59614;51.012;-1.648;2023-06-26T10:11:12;9.05;;;2.50;;
71108;SDS011;59614;51.012;-1.648;2023-06-26T10:13:42;6.88;;;2.40;;
71108;SDS011;59614;51.012;-1.648;2023-06-26T10:16:11;9.38;;;2.83;;
71108;SDS011;59614;51.012;-1.648;2023-06-26T10:18:39;7.60;;;2.40;;
71108;SDS011;59614;51.012;-1.648;2023-06-26T10:21:05;11.68;;;2.42;;
71108;SDS011;59614;51.012;-1.648;2023-06-26T10:23:33;7.85;;;2.33;;
71108;SDS011;59614;51.012;-1.648;2023-06-26T10:26:00;8.27;;;2.38;;
71108;SDS011;59614;51.012;-1.648;2023-06-26T10:28:26;7.47;;;2.10;;
71108;SDS011;59614;51.012;-1.648;2023-06-26T10:30:54;6.97;;;2.13;;
71108;SDS011;59614;51.012;-1.648;2023-06-26T10:33:20;6.97;;;2.17;;
71108;SDS011;59614;51.012;-1.648;2023-06-26T10:35:47;8.18;;;2.17;;
71108;SDS011;59614;51.012;-1.648;2023-06-26T10:38:12;7.53;;;2.22;;
71108;SDS011;59614;51.012;-1.648;2023-06-26T10:40:47;7.50;;;2.15;;
71108;SDS011;59614;51.012;-1.648;2023-06-26T10:43:14;8.52;;;2.50;;
71108;SDS011;59614;51.012;-1.648;2023-06-26T10:45:47;8.73;;;2.40;;
71108;SDS011;59614;51.012;-1.648;2023-06-26T10:48:20;5.85;;;2.15;;
71108;SDS011;59614;51.012;-1.648;2023-06-26T10:50:47;7.30;;;2.22;;
71108;SDS011;59614;51.012;-1.648;2023-06-26T10:56:00;7.87;;;2.17;;
71108;SDS011;59614;51.012;-1.648;2023-06-26T10:58:34;7.10;;;2.17;;
71108;SDS011;59614;51.012;-1.648;2023-06-26T11:03:37;6.78;;;2.22;;
71108;SDS011;59614;51.012;-1.648;2023-06-26T11:06:12;6.32;;;1.95;;
71108;SDS011;59614;51.012;-1.648;2023-06-26T11:11:13;5.35;;;2.10;;
71108;SDS011;59614;51.012;-1.648;2023-06-26T11:13:39;4.72;;;1.83;;
71108;SDS011;59614;51.012;-1.648;2023-06-26T11:16:05;7.03;;;2.40;;
71108;SDS011;59614;51.012;-1.648;2023-06-26T11:18:31;7.35;;;2.30;;
71108;SDS011;59614;51.012;-1.648;2023-06-26T11:23:36;10.10;;;2.70;;
71108;SDS011;59614;51.012;-1.648;2023-06-26T11:26:18;6.93;;;2.80;;
71108;SDS011;59614;51.012;-1.648;2023-06-26T11:28:50;6.90;;;2.30;;
71108;SDS011;59614;51.012;-1.648;2023-06-26T11:31:26;10.88;;;3.08;;
71108;SDS011;59614;51.012;-1.648;2023-06-26T11:33:53;7.28;;;2.78;;
71108;SDS011;59614;51.012;-1.648;2023-06-26T11:36:19;9.57;;;2.75;;
71108;SDS011;59614;51.012;-1.648;2023-06-26T11:38:45;7.40;;;2.08;;
71108;SDS011;59614;51.012;-1.648;2023-06-26T11:41:10;4.82;;;1.95;;
71108;SDS011;59614;51.012;-1.648;2023-06-26T11:43:41;7.18;;;2.08;;
71108;SDS011;59614;51.012;-1.648;2023-06-26T11:46:07;7.43;;;2.13;;
71108;SDS011;59614;51.012;-1.648;2023-06-26T11:48:32;7.45;;;2.35;;
71108;SDS011;59614;51.012;-1.648;2023-06-26T11:50:57;5.68;;;2.05;;
71108;SDS011;59614;51.012;-1.648;2023-06-26T11:53:23;7.25;;;2.25;;
71108;SDS011;59614;51.012;-1.648;2023-06-26T11:55:48;8.32;;;2.70;;
71108;SDS011;59614;51.012;-1.648;2023-06-26T11:58:14;6.03;;;2.60;;
71108;SDS011;59614;51.012;-1.648;2023-06-26T12:00:42;5.47;;;2.30;;
71108;SDS011;59614;51.012;-1.648;2023-06-26T12:03:08;9.85;;;2.83;;
71108;SDS011;59614;51.012;-1.648;2023-06-26T12:05:34;6.43;;;2.42;;
71108;SDS011;59614;51.012;-1.648;2023-06-26T12:07:59;6.60;;;2.58;;
71108;SDS011;59614;51.012;-1.648;2023-06-26T12:10:25;7.47;;;2.42;;
71108;SDS011;59614;51.012;-1.648;2023-06-26T12:12:51;7.55;;;2.28;;
71108;SDS011;59614;51.012;-1.648;2023-06-26T12:15:17;6.43;;;2.10;;
71108;SDS011;59614;51.012;-1.648;2023-06-26T12:17:42;8.18;;;2.40;;
71108;SDS011;59614;51.012;-1.648;2023-06-26T12:20:30;8.75;;;2.30;;
71108;SDS011;59614;51.012;-1.648;2023-06-26T12:22:57;9.07;;;2.15;;
71108;SDS011;59614;51.012;-1.648;2023-06-26T12:25:22;9.35;;;2.40;;
71108;SDS011;59614;51.012;-1.648;2023-06-26T12:27:50;7.85;;;2.13;;
71108;SDS011;59614;51.012;-1.648;2023-06-26T12:30:15;9.50;;;2.80;;
71108;SDS011;59614;51.012;-1.648;2023-06-26T12:32:43;7.75;;;2.28;;
71108;SDS011;59614;51.012;-1.648;2023-06-26T12:35:10;8.57;;;2.35;;
71108;SDS011;59614;51.012;-1.648;2023-06-26T12:37:36;5.95;;;2.42;;
71108;SDS011;59614;51.012;-1.648;2023-06-26T12:40:15;7.85;;;2.28;;
71108;SDS011;59614;51.012;-1.648;2023-06-26T12:42:42;9.90;;;2.50;;
71108;SDS011;59614;51.012;-1.648;2023-06-26T12:45:11;4.78;;;2.15;;
71108;SDS011;59614;51.012;-1.648;2023-06-26T12:47:38;7.10;;;2.30;;
71108;SDS011;59614;51.012;-1.648;2023-06-26T12:50:06;7.57;;;2.15;;
71108;SDS011;59614;51.012;-1.648;2023-06-26T12:52:32;5.45;;;2.00;;
71108;SDS011;59614;51.012;-1.648;2023-06-26T12:54:57;6.95;;;2.30;;
71108;SDS011;59614;51.012;-1.648;2023-06-26T12:57:23;4.55;;;1.90;;
71108;SDS011;59614;51.012;-1.648;2023-06-26T12:59:48;6.07;;;2.13;;
71108;SDS011;59614;51.012;-1.648;2023-06-26T13:02:14;9.95;;;2.15;;
71108;SDS011;59614;51.012;-1.648;2023-06-26T13:04:39;6.38;;;2.20;;
71108;SDS011;59614;51.012;-1.648;2023-06-26T13:07:06;4.05;;;1.52;;
71108;SDS011;59614;51.012;-1.648;2023-06-26T13:09:33;8.57;;;2.50;;
71108;SDS011;59614;51.012;-1.648;2023-06-26T13:14:24;5.53;;;1.90;;
71108;SDS011;59614;51.012;-1.648;2023-06-26T13:16:51;3.90;;;1.95;;
71108;SDS011;59614;51.012;-1.648;2023-06-26T13:19:16;9.07;;;2.30;;
71108;SDS011;59614;51.012;-1.648;2023-06-26T13:21:41;4.38;;;1.92;;
71108;SDS011;59614;51.012;-1.648;2023-06-26T13:24:07;5.20;;;2.17;;
71108;SDS011;59614;51.012;-1.648;2023-06-26T13:26:33;5.82;;;2.40;;
71108;SDS011;59614;51.012;-1.648;2023-06-26T13:28:58;8.18;;;2.42;;
71108;SDS011;59614;51.012;-1.648;2023-06-26T13:31:24;5.55;;;2.20;;
71108;SDS011;59614;51.012;-1.648;2023-06-26T13:33:50;7.05;;;2.30;;
71108;SDS011;59614;51.012;-1.648;2023-06-26T13:36:19;9.02;;;2.30;;
71108;SDS011;59614;51.012;-1.648;2023-06-26T13:38:44;11.30;;;2.10;;
71108;SDS011;59614;51.012;-1.648;2023-06-26T13:41:10;9.20;;;2.63;;
71108;SDS011;59614;51.012;-1.648;2023-06-26T13:43:36;6.47;;;2.08;;
71108;SDS011;59614;51.012;-1.648;2023-06-26T13:46:02;8.23;;;2.15;;
71108;SDS011;59614;51.012;-1.648;2023-06-26T13:48:28;5.00;;;2.08;;
71108;SDS011;59614;51.012;-1.648;2023-06-26T13:50:54;8.07;;;2.33;;
71108;SDS011;59614;51.012;-1.648;2023-06-26T13:53:19;6.03;;;2.28;;
71108;SDS011;59614;51.012;-1.648;2023-06-26T13:55:45;6.43;;;2.00;;
71108;SDS011;59614;51.012;-1.648;2023-06-26T13:58:10;7.07;;;2.20;;
71108;SDS011;59614;51.012;-1.648;2023-06-26T14:00:38;6.18;;;2.30;;
71108;SDS011;59614;51.012;-1.648;2023-06-26T14:03:04;6.28;;;2.50;;
71108;SDS011;59614;51.012;-1.648;2023-06-26T14:05:32;5.85;;;2.15;;
71108;SDS011;59614;51.012;-1.648;2023-06-26T14:07:57;4.93;;;2.10;;
71108;SDS011;59614;51.012;-1.648;2023-06-26T14:10:23;5.85;;;2.15;;
71108;SDS011;59614;51.012;-1.648;2023-06-26T14:12:49;8.05;;;2.20;;
71108;SDS011;59614;51.012;-1.648;2023-06-26T14:15:14;7.07;;;2.20;;
71108;SDS011;59614;51.012;-1.648;2023-06-26T14:17:40;6.38;;;2.30;;
71108;SDS011;59614;51.012;-1.648;2023-06-26T14:20:06;8.57;;;2.58;;
71108;SDS011;59614;51.012;-1.648;2023-06-26T14:22:37;9.00;;;2.90;;
71108;SDS011;59614;51.012;-1.648;2023-06-26T14:25:04;6.95;;;2.30;;
71108;SDS011;59614;51.012;-1.648;2023-06-26T14:27:30;9.70;;;2.33;;
71108;SDS011;59614;51.012;-1.648;2023-06-26T14:29:55;8.27;;;2.50;;
71108;SDS011;59614;51.012;-1.648;2023-06-26T14:32:21;5.95;;;2.38;;
71108;SDS011;59614;51.012;-1.648;2023-06-26T14:34:46;9.40;;;2.50;;
71108;SDS011;59614;51.012;-1.648;2023-06-26T14:37:11;7.45;;;2.60;;
71108;SDS011;59614;51.012;-1.648;2023-06-26T14:39:37;10.55;;;2.88;;
71108;SDS011;59614;51.012;-1.648;2023-06-26T14:42:03;9.32;;;2.40;;
71108;SDS011;59614;51.012;-1.648;2023-06-26T14:44:29;6.13;;;2.15;;